Terminal Aerodrome Forecast
Issued by NWS

Home | Current Version | Previous Version | Text Only | Print | Product List | Glossary On
Versions: 1 2 3 4 5 6 7 8 9 10 11 12 13 14 15 16 17 18 19 20 21 22 23 24 25 26 27 28
797
FTUS46 KLOX 260102 AAB
TAFPMD
TAF AMD
KPMD 260102Z 2601/2624 23018G28KT 6SM FU SCT020 BKN200
     FM260400 23014KT 5SM FU SCT020 BKN200
     FM260800 20008KT 6SM FU BKN200
     FM262100 25015G25KT P6SM SCT100 BKN180=

USA.gov is the U.S. government's official web portal to all federal, state and local government web resources and services.